MSC Mandraki — SZUH — position and weather

sailwx.info

Track history (hours):
 
Tides and Currents Weather Stations Pressure Air Temp Water Temp Dewpoint Dewpoint Depression Visibility Wind Speed Wind Dir Waves Ship Positions

MSC Mandraki

Last reported at 2016-Feb-11 12:33 UTC. Time now 2016-Feb-11 13:04 UTC.
Position N 57°24' E 008°02'.

Length 294 m; draft 11.2 m.

Type: Ship. MMSI: 240265000.

Date/timePositionNaut miles runAvg speedWind from/ knotsBaromVisibWave heightAir tempDewpointWater temp
2016-Feb-11 12:33N 57°24' E 008°02'18516.7
2016-Feb-11 01:28N 54°22' E 007°06'1618.1
2016-Feb-11 00:33N 54°12' E 007°28'1716.6
2016-Feb-10 23:33N 53°57' E 007°41'1111.2
2016-Feb-10 22:33N 53°52' E 007°58'1413.9
2016-Feb-10 21:33N 53°43' E 008°17'1110.5
2016-Feb-10 20:31N 53°36' E 008°31'0 0.1
2016-Feb-10 19:31N 53°36' E 008°31'0 0.0
2016-Feb-10 18:31N 53°36' E 008°31'0 0.0
2016-Feb-10 17:31N 53°36' E 008°31'0 0.0
2016-Feb-10 16:31N 53°36' E 008°31'0 0.0
2016-Feb-10 15:31N 53°36' E 008°31'0 0.0
2016-Feb-10 14:31N 53°36' E 008°31'1 1.1
2016-Feb-10 13:33N 53°35' E 008°32'1 0.8
2016-Feb-10 12:32N 53°34' E 008°32'0 0.0
2016-Feb-10 11:32N 53°34' E 008°32'0 0.0
2016-Feb-10 10:32N 53°34' E 008°32'0 0.0
2016-Feb-10 09:32N 53°34' E 008°32'0 0.0
2016-Feb-10 08:32N 53°34' E 008°32'0 0.0
2016-Feb-10 07:32N 53°34' E 008°32'0 0.0
2016-Feb-10 06:32N 53°34' E 008°32'0 0.0
2016-Feb-10 05:32N 53°34' E 008°32'0 0.0
2016-Feb-10 04:32N 53°34' E 008°32'0 0.0
2016-Feb-10 03:32N 53°34' E 008°32'0 0.0
2016-Feb-10 02:32N 53°34' E 008°32'0 0.0
2016-Feb-10 01:32N 53°34' E 008°32'0 0.0
2016-Feb-10 00:32N 53°34' E 008°32'0 0.0
2016-Feb-09 23:32N 53°34' E 008°32'0 0.0
2016-Feb-09 22:32N 53°34' E 008°32'0 0.0
2016-Feb-09 21:29N 53°34' E 008°32'0 0.0
2016-Feb-09 20:32N 53°34' E 008°32'0 0.0
2016-Feb-09 19:32N 53°34' E 008°32'0 0.0
2016-Feb-09 18:32N 53°34' E 008°32'0 0.0
2016-Feb-09 17:32N 53°34' E 008°32'0 0.0
2016-Feb-09 16:32N 53°34' E 008°32'0 0.0
2016-Feb-09 15:32N 53°34' E 008°32'0 0.0
2016-Feb-09 14:32N 53°34' E 008°32'0 0.1
2016-Feb-09 13:33N 53°34' E 008°32'1111.3
2016-Feb-09 12:33N 53°42' E 008°19'1514.5
2016-Feb-09 11:33N 53°51' E 007°59'1111.1
2016-Feb-09 10:33N 53°54' E 007°41'6 6.5
2016-Feb-09 09:33N 53°53' E 007°30'1919.3
2016-Feb-09 08:33N 53°50' E 006°58'2020.2
2016-Feb-09 07:33N 53°46' E 006°25'2020.4
2016-Feb-09 06:33N 53°40' E 005°52'2120.6
2016-Feb-09 05:33N 53°34' E 005°19'3919.4
2016-Feb-09 03:32N 53°08' E 004°29'2020.3
2016-Feb-09 02:33N 52°50' E 004°12'2020.4
2016-Feb-09 01:33N 52°35' E 003°51'4916.1
2016-Feb-08 22:30N 51°49' E 003°19'1615.9
2016-Feb-08 21:31N 51°35' E 003°10'1111.6
2016-Feb-08 20:33N 51°24' E 003°04'1514.6
2016-Feb-08 19:34N 51°25' E 003°28'9 8.6
2016-Feb-08 18:34N 51°26' E 003°41'1110.8
2016-Feb-08 17:34N 51°26' E 003°58'1211.9
2016-Feb-08 16:33N 51°21' E 004°16'1 0.9
2016-Feb-08 15:33N 51°21' E 004°17'0 0.4
2016-Feb-08 14:33N 51°21' E 004°18'2 1.7
2016-Feb-08 13:32N 51°19' E 004°20'0 0.0
2016-Feb-08 12:32N 51°20' E 004°20'0 0.0
2016-Feb-08 11:26N 51°19' E 004°20'0 0.0
2016-Feb-08 10:32N 51°20' E 004°20'0 0.0
2016-Feb-08 09:32N 51°20' E 004°20'0 0.0
2016-Feb-08 08:32N 51°20' E 004°20'0 0.0
2016-Feb-08 07:32N 51°20' E 004°20'0 0.0
2016-Feb-08 06:32N 51°20' E 004°20'0 0.0
2016-Feb-08 05:32N 51°20' E 004°20'0 0.0
2016-Feb-08 04:32N 51°20' E 004°20'0 0.0
2016-Feb-08 03:29N 51°20' E 004°20'0 0.0
2016-Feb-08 02:32N 51°20' E 004°20'0 0.0
2016-Feb-08 01:32N 51°20' E 004°20'0 0.0
2016-Feb-08 00:29N 51°20' E 004°20'0 0.0
2016-Feb-07 23:32N 51°20' E 004°20'0 0.0
2016-Feb-07 22:32N 51°20' E 004°20'0 0.0
2016-Feb-07 21:32N 51°20' E 004°20'0 0.0
2016-Feb-07 20:32N 51°20' E 004°20'0 0.0
2016-Feb-07 19:32N 51°20' E 004°20'0 0.0
2016-Feb-07 18:32N 51°20' E 004°20'0 0.0
2016-Feb-07 17:29N 51°20' E 004°20'2 2.3
2016-Feb-07 16:33N 51°21' E 004°17'0 0.0
2016-Feb-07 15:33N 51°21' E 004°17'5 4.7
2016-Feb-07 14:34N 51°24' E 004°12'9 8.8
2016-Feb-07 13:34N 51°24' E 003°57'1010.2
2016-Feb-07 12:33N 51°26' E 003°41'1110.8
2016-Feb-07 11:34N 51°24' E 003°24'1111.2
2016-Feb-07 10:33N 51°24' E 003°06'1312.5
2016-Feb-07 09:33N 51°22' E 002°46'7 6.7
2016-Feb-07 08:33N 51°23' E 002°36'4 3.2
2016-Feb-07 07:26N 51°26' E 002°40'0 0.1
2016-Feb-07 06:26N 51°26' E 002°40'0 0.0
2016-Feb-07 05:32N 51°26' E 002°40'0 0.0
2016-Feb-07 04:33N 51°26' E 002°40'0 0.0
2016-Feb-07 03:32N 51°26' E 002°40'0 0.1
2016-Feb-07 02:29N 51°26' E 002°40'0 0.0
2016-Feb-07 01:32N 51°26' E 002°40'0 0.0
2016-Feb-07 00:32N 51°26' E 002°40'0 0.0
2016-Feb-06 23:21N 51°26' E 002°40'0 0.0
2016-Feb-06 22:29N 51°26' E 002°40'0 0.0
2016-Feb-06 21:32N 51°26' E 002°40'0 0.0
2016-Feb-06 20:33N 51°26' E 002°40'0 0.1
2016-Feb-06 19:32N 51°26' E 002°40'0 0.1
2016-Feb-06 18:33N 51°26' E 002°40'0 0.1
2016-Feb-06 17:32N 51°26' E 002°40'0 0.1
2016-Feb-06 16:27N 51°26' E 002°40'0 0.0
2016-Feb-06 15:27N 51°26' E 002°40'0 0.1
2016-Feb-06 14:32N 51°26' E 002°40'0 0.0
2016-Feb-06 13:33N 51°26' E 002°40'0 0.0
2016-Feb-06 12:32N 51°26' E 002°40'0 0.0
2016-Feb-06 11:32N 51°26' E 002°40'0 0.0
2016-Feb-06 10:26N 51°26' E 002°40'0 0.0
2016-Feb-06 09:32N 51°26' E 002°40'0 0.0
2016-Feb-06 08:33N 51°26' E 002°40'0 0.1
2016-Feb-06 07:30N 51°26' E 002°40'0 0.1
2016-Feb-06 06:32N 51°26' E 002°40'0 0.0
2016-Feb-06 05:26N 51°26' E 002°40'0 0.0
2016-Feb-06 03:23N 51°26' E 002°40'0 0.0
2016-Feb-06 02:29N 51°26' E 002°40'0 0.0
2016-Feb-06 01:32N 51°26' E 002°40'2 2.0
2016-Feb-06 00:34N 51°27' E 002°43'6 6.3
2016-Feb-05 23:33N 51°23' E 002°35'1515.4
2016-Feb-05 22:33N 51°19' E 002°12'1414.3
2016-Feb-05 21:33N 51°28' E 001°54'1414.0
2016-Feb-05 20:34N 51°40' E 001°45'1312.6
2016-Feb-05 19:33N 51°52' E 001°36'10 9.9
2016-Feb-05 18:33N 51°56' E 001°21'3 2.8
2016-Feb-05 17:34N 51°58' E 001°18'0 0.0
2016-Feb-05 16:33N 51°58' E 001°18'0 0.0
2016-Feb-05 15:33N 51°58' E 001°18'0 0.0
2016-Feb-05 14:33N 51°58' E 001°18'0 0.0
2016-Feb-05 13:33N 51°58' E 001°18'0 0.0
2016-Feb-05 12:33N 51°58' E 001°18'0 0.0
2016-Feb-05 11:33N 51°58' E 001°18'0 0.0
2016-Feb-05 10:33N 51°58' E 001°18'0 0.0
2016-Feb-05 09:33N 51°58' E 001°18'0 0.0
2016-Feb-05 08:33N 51°58' E 001°18'0 0.0
2016-Feb-05 07:33N 51°58' E 001°18'0 0.0
2016-Feb-05 06:33N 51°58' E 001°18'0 0.0
2016-Feb-05 05:33N 51°58' E 001°18'0 0.0
2016-Feb-05 04:33N 51°58' E 001°18'0 0.0
2016-Feb-05 03:33N 51°58' E 001°18'0 0.0
2016-Feb-05 02:33N 51°58' E 001°18'0 0.0
2016-Feb-05 01:33N 51°58' E 001°18'0 0.0
2016-Feb-05 00:33N 51°58' E 001°18'0 0.0
2016-Feb-04 23:33N 51°58' E 001°18'0 0.0
2016-Feb-04 22:33N 51°58' E 001°18'0 0.0
2016-Feb-04 21:33N 51°58' E 001°18'0 0.1
2016-Feb-04 20:34N 51°57' E 001°18'8 7.5
2016-Feb-04 19:33N 51°56' E 001°30'9 9.3
2016-Feb-04 18:33N 51°51' E 001°43'5 5.2
2016-Feb-04 17:33N 51°48' E 001°50'9 9.3
2016-Feb-04 16:33N 51°39' E 001°50'1413.6
2016-Feb-04 15:34N 51°28' E 002°01'1514.5
2016-Feb-04 14:33N 51°21' E 002°22'1413.5
2016-Feb-04 13:33N 51°23' E 002°44'1313.1
2016-Feb-04 12:33N 51°24' E 003°05'1615.8
2016-Feb-04 11:33N 51°25' E 003°30'8 7.8
2016-Feb-04 10:33N 51°25' E 003°42'9 9.5
2016-Feb-04 09:34N 51°24' E 003°57'9 9.3
2016-Feb-04 08:34N 51°24' E 004°12'4 4.4
2016-Feb-04 07:33N 51°21' E 004°17'1 0.6
2016-Feb-04 06:33N 51°20' E 004°18'2 1.7
2016-Feb-04 05:32N 51°20' E 004°21'0 0.1
2016-Feb-04 04:32N 51°20' E 004°20'0 0.0
2016-Feb-04 03:29N 51°20' E 004°20'0 0.0
2016-Feb-04 02:32N 51°20' E 004°21'0 0.0
2016-Feb-04 01:32N 51°20' E 004°20'0 0.0
2016-Feb-04 00:32N 51°20' E 004°20'0 0.0
2016-Feb-03 23:29N 51°20' E 004°20'0 0.0
2016-Feb-03 22:32N 51°20' E 004°20'0 0.0
2016-Feb-03 21:32N 51°20' E 004°20'0 0.0
2016-Feb-03 20:32N 51°20' E 004°20'0 0.0
2016-Feb-03 19:32N 51°20' E 004°20'0 0.0
2016-Feb-03 18:32N 51°20' E 004°20'0 0.0
2016-Feb-03 17:32N 51°20' E 004°20'0 0.0
2016-Feb-03 16:32N 51°20' E 004°20'0 0.0
2016-Feb-03 15:33N 51°20' E 004°20'2 2.4
2016-Feb-03 14:33N 51°21' E 004°17'0 0.2
2016-Feb-03 13:33N 51°21' E 004°17'7 6.8
2016-Feb-03 12:33N 51°22' E 004°06'6 6.0
2016-Feb-03 11:33N 51°23' E 003°57'9 8.9
2016-Feb-03 10:33N 51°24' E 003°43'7 7.5
2016-Feb-03 09:33N 51°25' E 003°31'9 8.9
2016-Feb-03 08:33N 51°24' E 003°16'1110.7
2016-Feb-03 07:33N 51°27' E 002°60'1514.9
2016-Feb-03 06:33N 51°40' E 003°12'4 3.7
2016-Feb-03 05:33N 51°43' E 003°08'1 0.7
2016-Feb-03 04:33N 51°43' E 003°07'0 0.5
2016-Feb-03 03:32N 51°43' E 003°07'6 6.4
2016-Feb-03 02:32N 51°47' E 003°15'1915.7
2016-Feb-03 01:21N 52°06' E 003°21'1815.5
2016-Feb-03 00:12N 52°23' E 003°26'3713.9
2016-Feb-02 21:31N 52°56' E 003°55'1312.9
2016-Feb-02 20:29N 53°04' E 004°12'1213.0
2016-Feb-02 19:33N 53°13' E 004°26'1713.8
2016-Feb-02 18:18N 53°29' E 004°38'912.5
2016-Feb-02 17:33N 53°33' E 004°53'1212.2
2016-Feb-02 16:33N 53°37' E 005°12'1212.1
2016-Feb-02 15:33N 53°41' E 005°31'1111.4
2016-Feb-02 14:33N 53°45' E 005°49'1110.9
2016-Feb-02 13:33N 53°48' E 006°07'1111.1
2016-Feb-02 12:33N 53°51' E 006°25'1211.6
2016-Feb-02 11:33N 53°54' E 006°44'1211.5
2016-Feb-02 10:33N 53°57' E 007°03'1212.5
2016-Feb-02 09:33N 53°58' E 007°24'1111.2
2016-Feb-02 08:33N 53°56' E 007°43'1312.8
2016-Feb-02 07:33N 53°51' E 008°02'1515.2
2016-Feb-02 06:33N 53°41' E 008°22'9 8.9
2016-Feb-02 05:33N 53°35' E 008°32'0 0.0
2016-Feb-02 04:33N 53°35' E 008°32'0 0.0
2016-Feb-02 03:33N 53°35' E 008°32'0 0.0
2016-Feb-02 02:33N 53°35' E 008°32'0 0.0
2016-Feb-02 01:33N 53°35' E 008°32'0 0.0
2016-Feb-02 00:33N 53°35' E 008°32'0 0.0
2016-Feb-01 23:33N 53°35' E 008°32'0 0.0
2016-Feb-01 22:33N 53°35' E 008°32'0 0.0
2016-Feb-01 21:33N 53°35' E 008°32'0 0.0
2016-Feb-01 20:30N 53°35' E 008°32'0 0.0
2016-Feb-01 19:33N 53°35' E 008°32'0 0.0
2016-Feb-01 18:33N 53°35' E 008°32'0 0.0
2016-Feb-01 17:33N 53°35' E 008°32'0 0.0
2016-Feb-01 16:33N 53°35' E 008°32'0 0.0
2016-Feb-01 15:32N 53°35' E 008°32'0 0.0
2016-Feb-01 14:32N 53°35' E 008°32'0 0.0
2016-Feb-01 13:32N 53°35' E 008°32'  
Track history (hours):
 
Tides and Currents Weather Stations Pressure Air Temp Water Temp Dewpoint Dewpoint Depression Visibility Wind Speed Wind Dir Waves Ship Positions

MSC Mandraki

Last reported at 2016-Feb-11 12:33 UTC. Time now 2016-Feb-11 13:04 UTC.
Position N 57°24' E 008°02'.

Length 294 m; draft 11.2 m.

Type: Ship. MMSI: 240265000.

Date/timePositionNaut miles runAvg speedWind from/ knotsBaromVisibWave heightAir tempDewpointWater temp
2016-Feb-11 12:33N 57°24' E 008°02'18516.7
2016-Feb-11 01:28N 54°22' E 007°06'1618.1
2016-Feb-11 00:33N 54°12' E 007°28'1716.6
2016-Feb-10 23:33N 53°57' E 007°41'1111.2
2016-Feb-10 22:33N 53°52' E 007°58'1413.9
2016-Feb-10 21:33N 53°43' E 008°17'1110.5
2016-Feb-10 20:31N 53°36' E 008°31'0 0.1
2016-Feb-10 19:31N 53°36' E 008°31'0 0.0
2016-Feb-10 18:31N 53°36' E 008°31'0 0.0
2016-Feb-10 17:31N 53°36' E 008°31'0 0.0
2016-Feb-10 16:31N 53°36' E 008°31'0 0.0
2016-Feb-10 15:31N 53°36' E 008°31'0 0.0
2016-Feb-10 14:31N 53°36' E 008°31'1 1.1
2016-Feb-10 13:33N 53°35' E 008°32'1 0.8
2016-Feb-10 12:32N 53°34' E 008°32'0 0.0
2016-Feb-10 11:32N 53°34' E 008°32'0 0.0
2016-Feb-10 10:32N 53°34' E 008°32'0 0.0
2016-Feb-10 09:32N 53°34' E 008°32'0 0.0
2016-Feb-10 08:32N 53°34' E 008°32'0 0.0
2016-Feb-10 07:32N 53°34' E 008°32'0 0.0
2016-Feb-10 06:32N 53°34' E 008°32'0 0.0
2016-Feb-10 05:32N 53°34' E 008°32'0 0.0
2016-Feb-10 04:32N 53°34' E 008°32'0 0.0
2016-Feb-10 03:32N 53°34' E 008°32'0 0.0
2016-Feb-10 02:32N 53°34' E 008°32'0 0.0
2016-Feb-10 01:32N 53°34' E 008°32'0 0.0
2016-Feb-10 00:32N 53°34' E 008°32'0 0.0
2016-Feb-09 23:32N 53°34' E 008°32'0 0.0
2016-Feb-09 22:32N 53°34' E 008°32'0 0.0
2016-Feb-09 21:29N 53°34' E 008°32'0 0.0
2016-Feb-09 20:32N 53°34' E 008°32'0 0.0
2016-Feb-09 19:32N 53°34' E 008°32'0 0.0
2016-Feb-09 18:32N 53°34' E 008°32'0 0.0
2016-Feb-09 17:32N 53°34' E 008°32'0 0.0
2016-Feb-09 16:32N 53°34' E 008°32'0 0.0
2016-Feb-09 15:32N 53°34' E 008°32'0 0.0
2016-Feb-09 14:32N 53°34' E 008°32'0 0.1
2016-Feb-09 13:33N 53°34' E 008°32'1111.3
2016-Feb-09 12:33N 53°42' E 008°19'1514.5
2016-Feb-09 11:33N 53°51' E 007°59'1111.1
2016-Feb-09 10:33N 53°54' E 007°41'6 6.5
2016-Feb-09 09:33N 53°53' E 007°30'1919.3
2016-Feb-09 08:33N 53°50' E 006°58'2020.2
2016-Feb-09 07:33N 53°46' E 006°25'2020.4
2016-Feb-09 06:33N 53°40' E 005°52'2120.6
2016-Feb-09 05:33N 53°34' E 005°19'3919.4
2016-Feb-09 03:32N 53°08' E 004°29'2020.3
2016-Feb-09 02:33N 52°50' E 004°12'2020.4
2016-Feb-09 01:33N 52°35' E 003°51'4916.1
2016-Feb-08 22:30N 51°49' E 003°19'1615.9
2016-Feb-08 21:31N 51°35' E 003°10'1111.6
2016-Feb-08 20:33N 51°24' E 003°04'1514.6
2016-Feb-08 19:34N 51°25' E 003°28'9 8.6
2016-Feb-08 18:34N 51°26' E 003°41'1110.8
2016-Feb-08 17:34N 51°26' E 003°58'1211.9
2016-Feb-08 16:33N 51°21' E 004°16'1 0.9
2016-Feb-08 15:33N 51°21' E 004°17'0 0.4
2016-Feb-08 14:33N 51°21' E 004°18'2 1.7
2016-Feb-08 13:32N 51°19' E 004°20'0 0.0
2016-Feb-08 12:32N 51°20' E 004°20'0 0.0
2016-Feb-08 11:26N 51°19' E 004°20'0 0.0
2016-Feb-08 10:32N 51°20' E 004°20'0 0.0
2016-Feb-08 09:32N 51°20' E 004°20'0 0.0
2016-Feb-08 08:32N 51°20' E 004°20'0 0.0
2016-Feb-08 07:32N 51°20' E 004°20'0 0.0
2016-Feb-08 06:32N 51°20' E 004°20'0 0.0
2016-Feb-08 05:32N 51°20' E 004°20'0 0.0
2016-Feb-08 04:32N 51°20' E 004°20'0 0.0
2016-Feb-08 03:29N 51°20' E 004°20'0 0.0
2016-Feb-08 02:32N 51°20' E 004°20'0 0.0
2016-Feb-08 01:32N 51°20' E 004°20'0 0.0
2016-Feb-08 00:29N 51°20' E 004°20'0 0.0
2016-Feb-07 23:32N 51°20' E 004°20'0 0.0
2016-Feb-07 22:32N 51°20' E 004°20'0 0.0
2016-Feb-07 21:32N 51°20' E 004°20'0 0.0
2016-Feb-07 20:32N 51°20' E 004°20'0 0.0
2016-Feb-07 19:32N 51°20' E 004°20'0 0.0
2016-Feb-07 18:32N 51°20' E 004°20'0 0.0
2016-Feb-07 17:29N 51°20' E 004°20'2 2.3
2016-Feb-07 16:33N 51°21' E 004°17'0 0.0
2016-Feb-07 15:33N 51°21' E 004°17'5 4.7
2016-Feb-07 14:34N 51°24' E 004°12'9 8.8
2016-Feb-07 13:34N 51°24' E 003°57'1010.2
2016-Feb-07 12:33N 51°26' E 003°41'1110.8
2016-Feb-07 11:34N 51°24' E 003°24'1111.2
2016-Feb-07 10:33N 51°24' E 003°06'1312.5
2016-Feb-07 09:33N 51°22' E 002°46'7 6.7
2016-Feb-07 08:33N 51°23' E 002°36'4 3.2
2016-Feb-07 07:26N 51°26' E 002°40'0 0.1
2016-Feb-07 06:26N 51°26' E 002°40'0 0.0
2016-Feb-07 05:32N 51°26' E 002°40'0 0.0
2016-Feb-07 04:33N 51°26' E 002°40'0 0.0
2016-Feb-07 03:32N 51°26' E 002°40'0 0.1
2016-Feb-07 02:29N 51°26' E 002°40'0 0.0
2016-Feb-07 01:32N 51°26' E 002°40'0 0.0
2016-Feb-07 00:32N 51°26' E 002°40'0 0.0
2016-Feb-06 23:21N 51°26' E 002°40'0 0.0
2016-Feb-06 22:29N 51°26' E 002°40'0 0.0
2016-Feb-06 21:32N 51°26' E 002°40'0 0.0
2016-Feb-06 20:33N 51°26' E 002°40'0 0.1
2016-Feb-06 19:32N 51°26' E 002°40'0 0.1
2016-Feb-06 18:33N 51°26' E 002°40'0 0.1
2016-Feb-06 17:32N 51°26' E 002°40'0 0.1
2016-Feb-06 16:27N 51°26' E 002°40'0 0.0
2016-Feb-06 15:27N 51°26' E 002°40'0 0.1
2016-Feb-06 14:32N 51°26' E 002°40'0 0.0
2016-Feb-06 13:33N 51°26' E 002°40'0 0.0
2016-Feb-06 12:32N 51°26' E 002°40'0 0.0
2016-Feb-06 11:32N 51°26' E 002°40'0 0.0
2016-Feb-06 10:26N 51°26' E 002°40'0 0.0
2016-Feb-06 09:32N 51°26' E 002°40'0 0.0
2016-Feb-06 08:33N 51°26' E 002°40'0 0.1
2016-Feb-06 07:30N 51°26' E 002°40'0 0.1
2016-Feb-06 06:32N 51°26' E 002°40'0 0.0
2016-Feb-06 05:26N 51°26' E 002°40'0 0.0
2016-Feb-06 03:23N 51°26' E 002°40'0 0.0
2016-Feb-06 02:29N 51°26' E 002°40'0 0.0
2016-Feb-06 01:32N 51°26' E 002°40'2 2.0
2016-Feb-06 00:34N 51°27' E 002°43'6 6.3
2016-Feb-05 23:33N 51°23' E 002°35'1515.4
2016-Feb-05 22:33N 51°19' E 002°12'1414.3
2016-Feb-05 21:33N 51°28' E 001°54'1414.0
2016-Feb-05 20:34N 51°40' E 001°45'1312.6
2016-Feb-05 19:33N 51°52' E 001°36'10 9.9
2016-Feb-05 18:33N 51°56' E 001°21'3 2.8
2016-Feb-05 17:34N 51°58' E 001°18'0 0.0
2016-Feb-05 16:33N 51°58' E 001°18'0 0.0
2016-Feb-05 15:33N 51°58' E 001°18'0 0.0
2016-Feb-05 14:33N 51°58' E 001°18'0 0.0
2016-Feb-05 13:33N 51°58' E 001°18'0 0.0
2016-Feb-05 12:33N 51°58' E 001°18'0 0.0
2016-Feb-05 11:33N 51°58' E 001°18'0 0.0
2016-Feb-05 10:33N 51°58' E 001°18'0 0.0
2016-Feb-05 09:33N 51°58' E 001°18'0 0.0
2016-Feb-05 08:33N 51°58' E 001°18'0 0.0
2016-Feb-05 07:33N 51°58' E 001°18'0 0.0
2016-Feb-05 06:33N 51°58' E 001°18'0 0.0
2016-Feb-05 05:33N 51°58' E 001°18'0 0.0
2016-Feb-05 04:33N 51°58' E 001°18'0 0.0
2016-Feb-05 03:33N 51°58' E 001°18'0 0.0
2016-Feb-05 02:33N 51°58' E 001°18'0 0.0
2016-Feb-05 01:33N 51°58' E 001°18'0 0.0
2016-Feb-05 00:33N 51°58' E 001°18'0 0.0
2016-Feb-04 23:33N 51°58' E 001°18'0 0.0
2016-Feb-04 22:33N 51°58' E 001°18'0 0.0
2016-Feb-04 21:33N 51°58' E 001°18'0 0.1
2016-Feb-04 20:34N 51°57' E 001°18'8 7.5
2016-Feb-04 19:33N 51°56' E 001°30'9 9.3
2016-Feb-04 18:33N 51°51' E 001°43'5 5.2
2016-Feb-04 17:33N 51°48' E 001°50'9 9.3
2016-Feb-04 16:33N 51°39' E 001°50'1413.6
2016-Feb-04 15:34N 51°28' E 002°01'1514.5
2016-Feb-04 14:33N 51°21' E 002°22'1413.5
2016-Feb-04 13:33N 51°23' E 002°44'1313.1
2016-Feb-04 12:33N 51°24' E 003°05'1615.8
2016-Feb-04 11:33N 51°25' E 003°30'8 7.8
2016-Feb-04 10:33N 51°25' E 003°42'9 9.5
2016-Feb-04 09:34N 51°24' E 003°57'9 9.3
2016-Feb-04 08:34N 51°24' E 004°12'4 4.4
2016-Feb-04 07:33N 51°21' E 004°17'1 0.6
2016-Feb-04 06:33N 51°20' E 004°18'2 1.7
2016-Feb-04 05:32N 51°20' E 004°21'0 0.1
2016-Feb-04 04:32N 51°20' E 004°20'0 0.0
2016-Feb-04 03:29N 51°20' E 004°20'0 0.0
2016-Feb-04 02:32N 51°20' E 004°21'0 0.0
2016-Feb-04 01:32N 51°20' E 004°20'0 0.0
2016-Feb-04 00:32N 51°20' E 004°20'0 0.0
2016-Feb-03 23:29N 51°20' E 004°20'0 0.0
2016-Feb-03 22:32N 51°20' E 004°20'0 0.0
2016-Feb-03 21:32N 51°20' E 004°20'0 0.0
2016-Feb-03 20:32N 51°20' E 004°20'0 0.0
2016-Feb-03 19:32N 51°20' E 004°20'0 0.0
2016-Feb-03 18:32N 51°20' E 004°20'0 0.0
2016-Feb-03 17:32N 51°20' E 004°20'0 0.0
2016-Feb-03 16:32N 51°20' E 004°20'0 0.0
2016-Feb-03 15:33N 51°20' E 004°20'2 2.4
2016-Feb-03 14:33N 51°21' E 004°17'0 0.2
2016-Feb-03 13:33N 51°21' E 004°17'7 6.8
2016-Feb-03 12:33N 51°22' E 004°06'6 6.0
2016-Feb-03 11:33N 51°23' E 003°57'9 8.9
2016-Feb-03 10:33N 51°24' E 003°43'7 7.5
2016-Feb-03 09:33N 51°25' E 003°31'9 8.9
2016-Feb-03 08:33N 51°24' E 003°16'1110.7
2016-Feb-03 07:33N 51°27' E 002°60'1514.9
2016-Feb-03 06:33N 51°40' E 003°12'4 3.7
2016-Feb-03 05:33N 51°43' E 003°08'1 0.7
2016-Feb-03 04:33N 51°43' E 003°07'0 0.5
2016-Feb-03 03:32N 51°43' E 003°07'6 6.4
2016-Feb-03 02:32N 51°47' E 003°15'1915.7
2016-Feb-03 01:21N 52°06' E 003°21'1815.5
2016-Feb-03 00:12N 52°23' E 003°26'3713.9
2016-Feb-02 21:31N 52°56' E 003°55'1312.9
2016-Feb-02 20:29N 53°04' E 004°12'1213.0
2016-Feb-02 19:33N 53°13' E 004°26'1713.8
2016-Feb-02 18:18N 53°29' E 004°38'912.5
2016-Feb-02 17:33N 53°33' E 004°53'1212.2
2016-Feb-02 16:33N 53°37' E 005°12'1212.1
2016-Feb-02 15:33N 53°41' E 005°31'1111.4
2016-Feb-02 14:33N 53°45' E 005°49'1110.9
2016-Feb-02 13:33N 53°48' E 006°07'1111.1
2016-Feb-02 12:33N 53°51' E 006°25'1211.6
2016-Feb-02 11:33N 53°54' E 006°44'1211.5
2016-Feb-02 10:33N 53°57' E 007°03'1212.5
2016-Feb-02 09:33N 53°58' E 007°24'1111.2
2016-Feb-02 08:33N 53°56' E 007°43'1312.8
2016-Feb-02 07:33N 53°51' E 008°02'1515.2
2016-Feb-02 06:33N 53°41' E 008°22'9 8.9
2016-Feb-02 05:33N 53°35' E 008°32'0 0.0
2016-Feb-02 04:33N 53°35' E 008°32'0 0.0
2016-Feb-02 03:33N 53°35' E 008°32'0 0.0
2016-Feb-02 02:33N 53°35' E 008°32'0 0.0
2016-Feb-02 01:33N 53°35' E 008°32'0 0.0
2016-Feb-02 00:33N 53°35' E 008°32'0 0.0
2016-Feb-01 23:33N 53°35' E 008°32'0 0.0
2016-Feb-01 22:33N 53°35' E 008°32'0 0.0
2016-Feb-01 21:33N 53°35' E 008°32'0 0.0
2016-Feb-01 20:30N 53°35' E 008°32'0 0.0
2016-Feb-01 19:33N 53°35' E 008°32'0 0.0
2016-Feb-01 18:33N 53°35' E 008°32'0 0.0
2016-Feb-01 17:33N 53°35' E 008°32'0 0.0
2016-Feb-01 16:33N 53°35' E 008°32'0 0.0
2016-Feb-01 15:32N 53°35' E 008°32'0 0.0
2016-Feb-01 14:32N 53°35' E 008°32'0 0.0
2016-Feb-01 13:32N 53°35' E 008°32'  

Dump ship's entire track history